Terminal Aerodrome Forecast
Issued by NWS

Home | Current Version | Previous Version | Graphics & Text | Print | Product List | Glossary On
Versions: 1 2 3 4 5 6 7 8 9 10 11 12 13 14 15 16 17 18
000
FTUS43 KICT 190700 AAA
TAFRSL
TAF AMD
KRSL 190707Z 1907/2006 25009KT P6SM SCT090 BKN150
     FM190900 17010KT P6SM SCT250
     FM191900 17015KT P6SM SKC
     FM200000 18010KT P6SM SCT250=

USA.gov is the U.S. government's official web portal to all federal, state and local government web resources and services.